sensor_id;sensor_type;location;lat;lon;timestamp;pressure;altitude;pressure_sealevel;temperature;humidity
8049;BME280;20935;42.660;23.342;2023-06-26T00:02:42;94563.75;;;24.95;52.86
8049;BME280;20935;42.660;23.342;2023-06-26T00:05:29;94564.50;;;25.01;54.36
8049;BME280;20935;42.660;23.342;2023-06-26T00:08:15;94556.03;;;25.04;55.77
8049;BME280;20935;42.660;23.342;2023-06-26T00:11:00;94559.09;;;25.12;56.70
8049;BME280;20935;42.660;23.342;2023-06-26T00:13:46;94546.16;;;25.18;57.76
8049;BME280;20935;42.660;23.342;2023-06-26T00:16:31;94560.84;;;25.20;58.04
8049;BME280;20935;42.660;23.342;2023-06-26T00:19:16;94554.34;;;25.12;56.62
8049;BME280;20935;42.660;23.342;2023-06-26T00:22:04;94555.81;;;25.02;55.39
8049;BME280;20935;42.660;23.342;2023-06-26T00:24:49;94556.03;;;24.99;54.32
8049;BME280;20935;42.660;23.342;2023-06-26T00:27:35;94553.53;;;24.95;53.31
8049;BME280;20935;42.660;23.342;2023-06-26T00:30:20;94551.03;;;24.92;52.63
8049;BME280;20935;42.660;23.342;2023-06-26T00:33:05;94554.72;;;24.89;51.89
8049;BME280;20935;42.660;23.342;2023-06-26T00:35:51;94555.72;;;24.86;51.38
8049;BME280;20935;42.660;23.342;2023-06-26T00:38:38;94552.44;;;24.82;50.87
8049;BME280;20935;42.660;23.342;2023-06-26T00:41:23;94545.69;;;24.77;50.42
8049;BME280;20935;42.660;23.342;2023-06-26T00:44:09;94551.63;;;24.70;50.11
8049;BME280;20935;42.660;23.342;2023-06-26T00:46:54;94545.38;;;24.69;49.94
8049;BME280;20935;42.660;23.342;2023-06-26T00:49:40;94544.63;;;24.69;49.49
8049;BME280;20935;42.660;23.342;2023-06-26T00:52:26;94545.38;;;24.69;49.37
8049;BME280;20935;42.660;23.342;2023-06-26T00:55:13;94537.47;;;24.77;50.93
8049;BME280;20935;42.660;23.342;2023-06-26T00:57:59;94544.28;;;24.87;53.00
8049;BME280;20935;42.660;23.342;2023-06-26T01:00:44;94533.84;;;24.91;54.32
8049;BME280;20935;42.660;23.342;2023-06-26T01:03:29;94530.13;;;25.00;55.67
8049;BME280;20935;42.660;23.342;2023-06-26T01:06:15;94528.16;;;25.06;56.74
8049;BME280;20935;42.660;23.342;2023-06-26T01:09:01;94525.22;;;25.15;57.61
8049;BME280;20935;42.660;23.342;2023-06-26T01:11:48;94516.47;;;25.16;58.86
8049;BME280;20935;42.660;23.342;2023-06-26T01:14:34;94517.72;;;25.10;58.12
8049;BME280;20935;42.660;23.342;2023-06-26T01:17:20;94508.72;;;25.04;56.42
8049;BME280;20935;42.660;23.342;2023-06-26T01:20:07;94512.94;;;24.99;55.46
8049;BME280;20935;42.660;23.342;2023-06-26T01:22:58;94516.41;;;24.94;53.93
8049;BME280;20935;42.660;23.342;2023-06-26T01:25:57;94509.41;;;24.88;53.56
8049;BME280;20935;42.660;23.342;2023-06-26T01:28:50;94508.59;;;24.82;52.81
8049;BME280;20935;42.660;23.342;2023-06-26T01:31:36;94505.34;;;24.77;51.81
8049;BME280;20935;42.660;23.342;2023-06-26T01:34:23;94504.81;;;24.73;51.58
8049;BME280;20935;42.660;23.342;2023-06-26T01:37:08;94504.56;;;24.71;50.80
8049;BME280;20935;42.660;23.342;2023-06-26T01:39:53;94502.06;;;24.68;50.35
8049;BME280;20935;42.660;23.342;2023-06-26T01:42:39;94501.56;;;24.69;50.07
8049;BME280;20935;42.660;23.342;2023-06-26T01:45:28;94495.09;;;24.72;50.80
8049;BME280;20935;42.660;23.342;2023-06-26T01:48:16;94495.59;;;24.76;52.70
8049;BME280;20935;42.660;23.342;2023-06-26T01:51:07;94494.41;;;24.83;54.25
8049;BME280;20935;42.660;23.342;2023-06-26T01:53:55;94493.47;;;24.92;55.75
8049;BME280;20935;42.660;23.342;2023-06-26T01:56:43;94491.75;;;25.00;56.57
8049;BME280;20935;42.660;23.342;2023-06-26T01:59:31;94491.00;;;25.05;58.00
8049;BME280;20935;42.660;23.342;2023-06-26T02:02:19;94488.53;;;25.12;59.11
8049;BME280;20935;42.660;23.342;2023-06-26T02:05:04;94482.34;;;25.12;59.81
8049;BME280;20935;42.660;23.342;2023-06-26T02:07:50;94485.81;;;25.07;58.77
8049;BME280;20935;42.660;23.342;2023-06-26T02:10:36;94486.28;;;25.00;56.93
8049;BME280;20935;42.660;23.342;2023-06-26T02:13:21;94485.97;;;24.92;55.91
8049;BME280;20935;42.660;23.342;2023-06-26T02:16:06;94492.66;;;24.80;55.12
8049;BME280;20935;42.660;23.342;2023-06-26T02:18:53;94496.63;;;24.79;54.17
8049;BME280;20935;42.660;23.342;2023-06-26T02:21:38;94498.34;;;24.76;53.68
8049;BME280;20935;42.660;23.342;2023-06-26T02:24:24;94493.63;;;24.71;52.49
8049;BME280;20935;42.660;23.342;2023-06-26T02:27:14;94506.78;;;24.67;52.37
8049;BME280;20935;42.660;23.342;2023-06-26T02:29:59;94494.06;;;24.64;51.36
8049;BME280;20935;42.660;23.342;2023-06-26T02:32:44;94494.06;;;24.64;50.93
8049;BME280;20935;42.660;23.342;2023-06-26T02:35:31;94503.53;;;24.63;50.49
8049;BME280;20935;42.660;23.342;2023-06-26T02:38:17;94506.03;;;24.67;52.35
8049;BME280;20935;42.660;23.342;2023-06-26T02:41:02;94508.31;;;24.74;53.83
8049;BME280;20935;42.660;23.342;2023-06-26T02:43:48;94499.38;;;24.79;55.47
8049;BME280;20935;42.660;23.342;2023-06-26T02:46:33;94498.69;;;24.90;56.69
8049;BME280;20935;42.660;23.342;2023-06-26T02:49:19;94498.22;;;24.97;57.70
8049;BME280;20935;42.660;23.342;2023-06-26T02:52:06;94500.47;;;24.98;58.95
8049;BME280;20935;42.660;23.342;2023-06-26T02:54:51;94503.47;;;25.06;59.62
8049;BME280;20935;42.660;23.342;2023-06-26T02:57:37;94498.25;;;25.02;59.86
8049;BME280;20935;42.660;23.342;2023-06-26T03:00:23;94502.72;;;25.00;58.59
8049;BME280;20935;42.660;23.342;2023-06-26T03:03:08;94507.44;;;24.94;57.08
8049;BME280;20935;42.660;23.342;2023-06-26T03:05:53;94505.16;;;24.87;55.40
8049;BME280;20935;42.660;23.342;2023-06-26T03:08:40;94502.88;;;24.79;54.76
8049;BME280;20935;42.660;23.342;2023-06-26T03:11:26;94508.31;;;24.74;53.60
8049;BME280;20935;42.660;23.342;2023-06-26T03:14:12;94510.06;;;24.71;52.83
8049;BME280;20935;42.660;23.342;2023-06-26T03:16:57;94509.28;;;24.71;51.92
8049;BME280;20935;42.660;23.342;2023-06-26T03:19:47;94504.06;;;24.67;51.45
8049;BME280;20935;42.660;23.342;2023-06-26T03:22:32;94503.03;;;24.65;51.03
8049;BME280;20935;42.660;23.342;2023-06-26T03:25:19;94505.00;;;24.64;51.24
8049;BME280;20935;42.660;23.342;2023-06-26T03:28:05;94503.06;;;24.70;53.00
8049;BME280;20935;42.660;23.342;2023-06-26T03:30:50;94501.59;;;24.75;54.77
8049;BME280;20935;42.660;23.342;2023-06-26T03:33:36;94509.34;;;24.82;55.85
8049;BME280;20935;42.660;23.342;2023-06-26T03:36:22;94508.66;;;24.93;56.97
8049;BME280;20935;42.660;23.342;2023-06-26T03:39:07;94510.69;;;24.98;57.92
8049;BME280;20935;42.660;23.342;2023-06-26T03:41:54;94508.22;;;25.05;58.92
8049;BME280;20935;42.660;23.342;2023-06-26T03:44:39;94506.25;;;25.11;59.68
8049;BME280;20935;42.660;23.342;2023-06-26T03:47:25;94509.97;;;25.08;59.46
8049;BME280;20935;42.660;23.342;2023-06-26T03:50:11;94508.94;;;25.00;57.89
8049;BME280;20935;42.660;23.342;2023-06-26T03:52:56;94509.69;;;24.95;56.84
8049;BME280;20935;42.660;23.342;2023-06-26T03:55:43;94510.41;;;24.90;55.46
8049;BME280;20935;42.660;23.342;2023-06-26T03:58:29;94504.63;;;24.83;54.56
8049;BME280;20935;42.660;23.342;2023-06-26T04:01:15;94505.84;;;24.76;53.87
8049;BME280;20935;42.660;23.342;2023-06-26T04:04:00;94506.03;;;24.72;53.08
8049;BME280;20935;42.660;23.342;2023-06-26T04:06:46;94502.78;;;24.68;52.32
8049;BME280;20935;42.660;23.342;2023-06-26T04:09:31;94501.03;;;24.65;52.00
8049;BME280;20935;42.660;23.342;2023-06-26T04:12:17;94500.03;;;24.63;51.33
8049;BME280;20935;42.660;23.342;2023-06-26T04:15:05;94508.03;;;24.66;53.38
8049;BME280;20935;42.660;23.342;2023-06-26T04:17:50;94504.34;;;24.75;55.09
8049;BME280;20935;42.660;23.342;2023-06-26T04:20:39;94503.84;;;24.82;56.25
8049;BME280;20935;42.660;23.342;2023-06-26T04:23:24;94502.66;;;24.89;57.81
8049;BME280;20935;42.660;23.342;2023-06-26T04:26:09;94507.94;;;24.98;58.82
8049;BME280;20935;42.660;23.342;2023-06-26T04:28:57;94507.47;;;25.05;59.53
8049;BME280;20935;42.660;23.342;2023-06-26T04:31:44;94507.97;;;25.09;60.25
8049;BME280;20935;42.660;23.342;2023-06-26T04:34:30;94507.97;;;25.09;59.83
8049;BME280;20935;42.660;23.342;2023-06-26T04:37:19;94515.44;;;25.03;58.09
8049;BME280;20935;42.660;23.342;2023-06-26T04:40:05;94514.66;;;24.97;56.79
8049;BME280;20935;42.660;23.342;2023-06-26T04:42:53;94523.63;;;24.92;55.50
8049;BME280;20935;42.660;23.342;2023-06-26T04:45:39;94522.84;;;24.86;54.96
8049;BME280;20935;42.660;23.342;2023-06-26T04:48:26;94528.53;;;24.82;53.72
8049;BME280;20935;42.660;23.342;2023-06-26T04:51:12;94523.28;;;24.78;52.66
8049;BME280;20935;42.660;23.342;2023-06-26T04:53:58;94523.00;;;24.76;52.08
8049;BME280;20935;42.660;23.342;2023-06-26T04:56:44;94519.75;;;24.72;51.66
8049;BME280;20935;42.660;23.342;2023-06-26T04:59:31;94525.50;;;24.74;51.83
8049;BME280;20935;42.660;23.342;2023-06-26T05:02:16;94521.53;;;24.81;53.25
8049;BME280;20935;42.660;23.342;2023-06-26T05:05:03;94522.84;;;24.86;55.11
8049;BME280;20935;42.660;23.342;2023-06-26T05:07:48;94520.66;;;24.95;56.41
8049;BME280;20935;42.660;23.342;2023-06-26T05:10:34;94523.66;;;25.03;57.22
8049;BME280;20935;42.660;23.342;2023-06-26T05:13:19;94530.19;;;25.11;58.78
8049;BME280;20935;42.660;23.342;2023-06-26T05:16:05;94529.66;;;25.12;59.67
8049;BME280;20935;42.660;23.342;2023-06-26T05:18:53;94538.41;;;25.16;60.59
8049;BME280;20935;42.660;23.342;2023-06-26T05:21:40;94539.63;;;25.10;58.95
8049;BME280;20935;42.660;23.342;2023-06-26T05:24:27;94538.13;;;25.03;57.71
8049;BME280;20935;42.660;23.342;2023-06-26T05:27:13;94547.31;;;25.00;56.56
8049;BME280;20935;42.660;23.342;2023-06-26T05:30:06;94542.81;;;24.92;55.05
8049;BME280;20935;42.660;23.342;2023-06-26T05:32:52;94538.78;;;24.87;54.14
8049;BME280;20935;42.660;23.342;2023-06-26T05:35:39;94541.47;;;24.82;53.64
8049;BME280;20935;42.660;23.342;2023-06-26T05:38:27;94540.94;;;24.77;52.60
8049;BME280;20935;42.660;23.342;2023-06-26T05:41:13;94541.66;;;24.72;51.96
8049;BME280;20935;42.660;23.342;2023-06-26T05:43:58;94538.94;;;24.72;51.86
8049;BME280;20935;42.660;23.342;2023-06-26T05:46:45;94546.19;;;24.81;53.33
8049;BME280;20935;42.660;23.342;2023-06-26T05:49:31;94546.50;;;24.89;54.85
8049;BME280;20935;42.660;23.342;2023-06-26T05:52:17;94548.31;;;24.97;56.14
8049;BME280;20935;42.660;23.342;2023-06-26T05:55:04;94552.59;;;25.04;57.39
8049;BME280;20935;42.660;23.342;2023-06-26T05:57:50;94548.09;;;25.06;59.29
8049;BME280;20935;42.660;23.342;2023-06-26T06:00:36;94544.41;;;25.20;59.34
8049;BME280;20935;42.660;23.342;2023-06-26T06:03:22;94544.69;;;25.22;60.49
8049;BME280;20935;42.660;23.342;2023-06-26T06:06:08;94544.44;;;25.26;61.97
8049;BME280;20935;42.660;23.342;2023-06-26T06:08:54;94541.72;;;25.32;63.27
8049;BME280;20935;42.660;23.342;2023-06-26T06:11:41;94559.69;;;25.38;63.88
8049;BME280;20935;42.660;23.342;2023-06-26T06:14:30;94544.97;;;25.41;64.12
8049;BME280;20935;42.660;23.342;2023-06-26T06:17:15;94545.00;;;25.47;63.32
8049;BME280;20935;42.660;23.342;2023-06-26T06:20:01;94537.28;;;25.51;65.67
8049;BME280;20935;42.660;23.342;2023-06-26T06:22:46;94544.53;;;25.54;65.47
8049;BME280;20935;42.660;23.342;2023-06-26T06:25:33;94536.56;;;25.56;66.30
8049;BME280;20935;42.660;23.342;2023-06-26T06:28:20;94541.81;;;25.59;66.47
8049;BME280;20935;42.660;23.342;2023-06-26T06:31:05;94537.06;;;25.60;66.52
8049;BME280;20935;42.660;23.342;2023-06-26T06:33:50;94535.81;;;25.61;67.03
8049;BME280;20935;42.660;23.342;2023-06-26T06:36:36;94538.06;;;25.62;66.19
8049;BME280;20935;42.660;23.342;2023-06-26T06:39:22;94535.84;;;25.66;65.87
8049;BME280;20935;42.660;23.342;2023-06-26T06:42:07;94533.34;;;25.68;65.71
8049;BME280;20935;42.660;23.342;2023-06-26T06:44:54;94539.09;;;25.70;66.94
8049;BME280;20935;42.660;23.342;2023-06-26T06:47:39;94535.81;;;25.72;67.56
8049;BME280;20935;42.660;23.342;2023-06-26T06:50:25;94533.59;;;25.76;66.87
8049;BME280;20935;42.660;23.342;2023-06-26T06:53:10;94538.84;;;25.80;67.64
8049;BME280;20935;42.660;23.342;2023-06-26T06:55:56;94536.34;;;25.82;67.69
8049;BME280;20935;42.660;23.342;2023-06-26T06:58:41;94532.88;;;25.87;67.97
8049;BME280;20935;42.660;23.342;2023-06-26T07:01:29;94531.38;;;25.91;67.39
8049;BME280;20935;42.660;23.342;2023-06-26T07:04:15;94533.13;;;25.94;67.57
8049;BME280;20935;42.660;23.342;2023-06-26T07:07:00;94529.88;;;25.96;67.78
8049;BME280;20935;42.660;23.342;2023-06-26T07:09:46;94530.63;;;25.96;68.79
8049;BME280;20935;42.660;23.342;2023-06-26T07:12:31;94525.38;;;25.98;68.65
8049;BME280;20935;42.660;23.342;2023-06-26T07:15:17;94529.63;;;25.99;68.65
8049;BME280;20935;42.660;23.342;2023-06-26T07:18:04;94522.88;;;26.00;68.65
8049;BME280;20935;42.660;23.342;2023-06-26T07:20:49;94525.13;;;26.02;68.51
8049;BME280;20935;42.660;23.342;2023-06-26T07:23:35;94533.38;;;26.02;68.90
8049;BME280;20935;42.660;23.342;2023-06-26T07:26:20;94530.63;;;26.02;68.86
8049;BME280;20935;42.660;23.342;2023-06-26T07:29:07;94516.91;;;26.02;69.09
8049;BME280;20935;42.660;23.342;2023-06-26T07:31:52;94514.38;;;26.04;68.87
8049;BME280;20935;42.660;23.342;2023-06-26T07:34:39;94521.91;;;26.03;69.88
8049;BME280;20935;42.660;23.342;2023-06-26T07:37:24;94517.88;;;26.04;70.32
8049;BME280;20935;42.660;23.342;2023-06-26T07:40:10;94519.88;;;26.04;69.31
8049;BME280;20935;42.660;23.342;2023-06-26T07:42:55;94519.16;;;26.03;68.84
8049;BME280;20935;42.660;23.342;2023-06-26T07:45:42;94531.63;;;26.04;69.35
8049;BME280;20935;42.660;23.342;2023-06-26T07:48:27;94525.38;;;26.04;69.12
8049;BME280;20935;42.660;23.342;2023-06-26T07:51:14;94520.63;;;26.04;69.04
8049;BME280;20935;42.660;23.342;2023-06-26T07:53:59;94520.63;;;26.04;68.42
8049;BME280;20935;42.660;23.342;2023-06-26T07:56:55;94520.38;;;26.08;68.99
8049;BME280;20935;42.660;23.342;2023-06-26T07:59:41;94518.38;;;26.08;69.71
8049;BME280;20935;42.660;23.342;2023-06-26T08:02:26;94525.88;;;26.08;69.28
8049;BME280;20935;42.660;23.342;2023-06-26T08:05:12;94517.63;;;26.08;68.81
8049;BME280;20935;42.660;23.342;2023-06-26T08:07:59;94521.88;;;26.09;69.73
8049;BME280;20935;42.660;23.342;2023-06-26T08:10:46;94517.16;;;26.09;68.81
8049;BME280;20935;42.660;23.342;2023-06-26T08:13:32;94516.66;;;26.11;69.66
8049;BME280;20935;42.660;23.342;2023-06-26T08:16:17;94508.41;;;26.11;68.49
8049;BME280;20935;42.660;23.342;2023-06-26T08:19:03;94516.88;;;26.13;69.25
8049;BME280;20935;42.660;23.342;2023-06-26T08:21:48;94509.91;;;26.12;69.24
8049;BME280;20935;42.660;23.342;2023-06-26T08:24:35;94518.88;;;26.12;69.10
8049;BME280;20935;42.660;23.342;2023-06-26T08:27:20;94513.66;;;26.14;68.97
8049;BME280;20935;42.660;23.342;2023-06-26T08:30:06;94528.91;;;26.15;68.91
8049;BME280;20935;42.660;23.342;2023-06-26T08:32:52;94522.66;;;26.15;68.64
8049;BME280;20935;42.660;23.342;2023-06-26T08:35:37;94524.38;;;26.18;68.33
8049;BME280;20935;42.660;23.342;2023-06-26T08:38:23;94520.44;;;26.19;68.36
8049;BME280;20935;42.660;23.342;2023-06-26T08:41:10;94519.16;;;26.20;68.43
8049;BME280;20935;42.660;23.342;2023-06-26T08:43:55;94523.41;;;26.21;68.42
8049;BME280;20935;42.660;23.342;2023-06-26T08:46:41;94526.91;;;26.22;68.61
8049;BME280;20935;42.660;23.342;2023-06-26T08:49:30;94526.41;;;26.23;68.44
8049;BME280;20935;42.660;23.342;2023-06-26T08:52:22;94514.91;;;26.25;68.14
8049;BME280;20935;42.660;23.342;2023-06-26T08:55:10;94507.69;;;26.27;67.87
8049;BME280;20935;42.660;23.342;2023-06-26T08:57:57;94507.91;;;26.29;67.49
8049;BME280;20935;42.660;23.342;2023-06-26T09:00:43;94510.66;;;26.29;68.18
8049;BME280;20935;42.660;23.342;2023-06-26T09:03:28;94519.66;;;26.30;67.75
8049;BME280;20935;42.660;23.342;2023-06-26T09:06:14;94520.41;;;26.30;67.85
8049;BME280;20935;42.660;23.342;2023-06-26T09:09:00;94521.16;;;26.31;67.93
8049;BME280;20935;42.660;23.342;2023-06-26T09:11:45;94513.91;;;26.33;67.78
8049;BME280;20935;42.660;23.342;2023-06-26T09:14:33;94506.41;;;26.34;67.68
8049;BME280;20935;42.660;23.342;2023-06-26T09:17:19;94512.16;;;26.36;67.54
8049;BME280;20935;42.660;23.342;2023-06-26T09:20:09;94514.41;;;26.37;67.76
8049;BME280;20935;42.660;23.342;2023-06-26T09:22:56;94517.91;;;26.38;67.20
8049;BME280;20935;42.660;23.342;2023-06-26T09:25:42;94511.16;;;26.39;67.56
8049;BME280;20935;42.660;23.342;2023-06-26T09:28:29;94511.66;;;26.43;67.44
8049;BME280;20935;42.660;23.342;2023-06-26T09:31:17;94510.91;;;26.42;67.55
8049;BME280;20935;42.660;23.342;2023-06-26T09:34:05;94521.38;;;26.44;67.34
8049;BME280;20935;42.660;23.342;2023-06-26T09:36:53;94512.63;;;26.45;67.06
8049;BME280;20935;42.660;23.342;2023-06-26T09:39:38;94508.66;;;26.46;67.42
8049;BME280;20935;42.660;23.342;2023-06-26T09:42:24;94506.88;;;26.49;67.25
8049;BME280;20935;42.660;23.342;2023-06-26T09:45:18;94504.91;;;26.49;67.29
8049;BME280;20935;42.660;23.342;2023-06-26T09:48:06;94509.63;;;26.49;67.70
8049;BME280;20935;42.660;23.342;2023-06-26T09:50:53;94511.63;;;26.48;67.57
8049;BME280;20935;42.660;23.342;2023-06-26T09:53:38;94508.88;;;26.48;67.50
8049;BME280;20935;42.660;23.342;2023-06-26T09:56:24;94516.91;;;26.46;67.88
8049;BME280;20935;42.660;23.342;2023-06-26T09:59:09;94518.63;;;26.49;67.98
8049;BME280;20935;42.660;23.342;2023-06-26T10:01:59;94517.38;;;26.50;67.66
8049;BME280;20935;42.660;23.342;2023-06-26T10:04:46;94513.41;;;26.51;67.65
8049;BME280;20935;42.660;23.342;2023-06-26T10:07:31;94521.63;;;26.51;67.88
8049;BME280;20935;42.660;23.342;2023-06-26T10:10:18;94510.66;;;26.51;67.87
8049;BME280;20935;42.660;23.342;2023-06-26T10:13:08;94509.91;;;26.51;68.02
8049;BME280;20935;42.660;23.342;2023-06-26T10:15:57;94518.13;;;26.51;68.14
8049;BME280;20935;42.660;23.342;2023-06-26T10:18:44;94516.63;;;26.50;68.16
8049;BME280;20935;42.660;23.342;2023-06-26T10:21:32;94504.91;;;26.49;68.22
8049;BME280;20935;42.660;23.342;2023-06-26T10:24:20;94504.13;;;26.49;68.61
8049;BME280;20935;42.660;23.342;2023-06-26T10:27:11;94511.13;;;26.50;68.22
8049;BME280;20935;42.660;23.342;2023-06-26T10:30:02;94502.91;;;26.50;68.61
8049;BME280;20935;42.660;23.342;2023-06-26T10:32:49;94511.13;;;26.50;68.78
8049;BME280;20935;42.660;23.342;2023-06-26T10:35:42;94508.41;;;26.50;68.71
8049;BME280;20935;42.660;23.342;2023-06-26T10:38:48;94507.91;;;26.51;68.44
8049;BME280;20935;42.660;23.342;2023-06-26T10:41:38;94504.91;;;26.49;68.68
8049;BME280;20935;42.660;23.342;2023-06-26T10:44:23;94506.88;;;26.49;68.98
8049;BME280;20935;42.660;23.342;2023-06-26T10:47:09;94508.88;;;26.48;68.84
8049;BME280;20935;42.660;23.342;2023-06-26T10:49:55;94503.38;;;26.48;68.64
8049;BME280;20935;42.660;23.342;2023-06-26T10:52:41;94501.41;;;26.49;68.63
8049;BME280;20935;42.660;23.342;2023-06-26T10:55:28;94500.66;;;26.48;69.00
8049;BME280;20935;42.660;23.342;2023-06-26T10:58:27;94495.41;;;26.50;69.09
8049;BME280;20935;42.660;23.342;2023-06-26T11:01:18;94490.41;;;26.49;69.11
8049;BME280;20935;42.660;23.342;2023-06-26T11:04:05;94493.91;;;26.49;69.47
8049;BME280;20935;42.660;23.342;2023-06-26T11:07:14;94492.88;;;26.52;69.46
8049;BME280;20935;42.660;23.342;2023-06-26T11:10:01;94490.66;;;26.51;69.47
8049;BME280;20935;42.660;23.342;2023-06-26T11:12:49;94494.16;;;26.51;69.15
8049;BME280;20935;42.660;23.342;2023-06-26T11:15:35;94486.66;;;26.52;69.11
8049;BME280;20935;42.660;23.342;2023-06-26T11:18:21;94488.91;;;26.53;69.29
8049;BME280;20935;42.660;23.342;2023-06-26T11:21:07;94488.16;;;26.53;68.97
8049;BME280;20935;42.660;23.342;2023-06-26T11:23:53;94493.91;;;26.55;69.23
8049;BME280;20935;42.660;23.342;2023-06-26T11:26:44;94487.88;;;26.56;69.01
8049;BME280;20935;42.660;23.342;2023-06-26T11:29:34;94485.13;;;26.56;69.25
8049;BME280;20935;42.660;23.342;2023-06-26T11:32:20;94488.16;;;26.58;68.83
8049;BME280;20935;42.660;23.342;2023-06-26T11:35:06;94485.88;;;26.57;68.73
8049;BME280;20935;42.660;23.342;2023-06-26T11:37:55;94492.13;;;26.57;69.15
8049;BME280;20935;42.660;23.342;2023-06-26T11:40:40;94487.38;;;26.58;68.85
8049;BME280;20935;42.660;23.342;2023-06-26T11:43:26;94489.38;;;26.57;69.32
8049;BME280;20935;42.660;23.342;2023-06-26T11:46:12;94484.66;;;26.58;68.84
8049;BME280;20935;42.660;23.342;2023-06-26T11:48:58;94479.16;;;26.58;69.03
8049;BME280;20935;42.660;23.342;2023-06-26T11:51:43;94481.91;;;26.58;68.93
8049;BME280;20935;42.660;23.342;2023-06-26T11:54:29;94481.91;;;26.58;69.22
8049;BME280;20935;42.660;23.342;2023-06-26T11:57:15;94481.16;;;26.57;69.15
8049;BME280;20935;42.660;23.342;2023-06-26T12:00:10;94483.88;;;26.57;69.29
8049;BME280;20935;42.660;23.342;2023-06-26T12:02:57;94479.91;;;26.58;69.16
8049;BME280;20935;42.660;23.342;2023-06-26T12:05:43;94470.38;;;26.59;68.81
8049;BME280;20935;42.660;23.342;2023-06-26T12:08:29;94469.88;;;26.61;68.89
8049;BME280;20935;42.660;23.342;2023-06-26T12:11:14;94473.38;;;26.61;68.79
8049;BME280;20935;42.660;23.342;2023-06-26T12:14:00;94472.91;;;26.63;68.79
8049;BME280;20935;42.660;23.342;2023-06-26T12:16:47;94471.88;;;26.66;69.25
8049;BME280;20935;42.660;23.342;2023-06-26T12:19:33;94469.13;;;26.66;69.03
8049;BME280;20935;42.660;23.342;2023-06-26T12:22:19;94472.09;;;26.68;68.71
8049;BME280;20935;42.660;23.342;2023-06-26T12:25:07;94468.88;;;26.70;69.27
8049;BME280;20935;42.660;23.342;2023-06-26T12:27:52;94467.63;;;26.71;68.74
8049;BME280;20935;42.660;23.342;2023-06-26T12:30:38;94465.09;;;26.73;68.71
8049;BME280;20935;42.660;23.342;2023-06-26T12:33:25;94476.84;;;26.73;68.90
8049;BME280;20935;42.660;23.342;2023-06-26T12:36:12;94468.09;;;26.75;68.85
8049;BME280;20935;42.660;23.342;2023-06-26T12:39:00;94471.09;;;26.77;68.99
8049;BME280;20935;42.660;23.342;2023-06-26T12:41:47;94475.34;;;26.78;69.01
8049;BME280;20935;42.660;23.342;2023-06-26T12:44:33;94476.09;;;26.78;68.80
8049;BME280;20935;42.660;23.342;2023-06-26T12:47:23;94480.09;;;26.77;69.03
8049;BME280;20935;42.660;23.342;2023-06-26T12:50:09;94476.09;;;26.78;69.11
8049;BME280;20935;42.660;23.342;2023-06-26T12:52:56;94462.84;;;26.77;69.22
8049;BME280;20935;42.660;23.342;2023-06-26T12:55:42;94467.59;;;26.76;69.23
8049;BME280;20935;42.660;23.342;2023-06-26T12:58:28;94464.09;;;26.76;69.19
8049;BME280;20935;42.660;23.342;2023-06-26T13:01:13;94472.31;;;26.76;69.17
8049;BME280;20935;42.660;23.342;2023-06-26T13:03:58;94467.34;;;26.74;69.20
8049;BME280;20935;42.660;23.342;2023-06-26T13:06:44;94471.59;;;26.75;69.32
8049;BME280;20935;42.660;23.342;2023-06-26T13:09:32;94472.31;;;26.76;69.19
8049;BME280;20935;42.660;23.342;2023-06-26T13:12:18;94470.09;;;26.74;69.33
8049;BME280;20935;42.660;23.342;2023-06-26T13:15:05;94474.84;;;26.74;69.02
8049;BME280;20935;42.660;23.342;2023-06-26T13:17:51;94483.09;;;26.74;69.04
8049;BME280;20935;42.660;23.342;2023-06-26T13:20:36;94474.09;;;26.73;68.96
8049;BME280;20935;42.660;23.342;2023-06-26T13:23:21;94480.34;;;26.74;69.47
8049;BME280;20935;42.660;23.342;2023-06-26T13:26:09;94479.59;;;26.73;69.16
8049;BME280;20935;42.660;23.342;2023-06-26T13:28:55;94476.84;;;26.73;69.05
8049;BME280;20935;42.660;23.342;2023-06-26T13:31:40;94476.09;;;26.73;69.29
8049;BME280;20935;42.660;23.342;2023-06-26T13:34:27;94476.84;;;26.73;69.02
8049;BME280;20935;42.660;23.342;2023-06-26T13:37:13;94471.34;;;26.73;69.36
8049;BME280;20935;42.660;23.342;2023-06-26T13:39:58;94466.59;;;26.74;69.23
8049;BME280;20935;42.660;23.342;2023-06-26T13:42:45;94478.84;;;26.73;68.99
8049;BME280;20935;42.660;23.342;2023-06-26T13:45:31;94473.34;;;26.73;69.52
8049;BME280;20935;42.660;23.342;2023-06-26T13:48:17;94479.59;;;26.73;69.55
8049;BME280;20935;42.660;23.342;2023-06-26T13:51:02;94474.09;;;26.73;69.45
8049;BME280;20935;42.660;23.342;2023-06-26T13:53:48;94476.59;;;26.77;69.16
8049;BME280;20935;42.660;23.342;2023-06-26T13:56:33;94478.09;;;26.78;69.55
8049;BME280;20935;42.660;23.342;2023-06-26T13:59:20;94479.06;;;26.80;69.44
8049;BME280;20935;42.660;23.342;2023-06-26T14:02:05;94483.81;;;26.80;69.41
8049;BME280;20935;42.660;23.342;2023-06-26T14:04:51;94479.06;;;26.80;69.18
8049;BME280;20935;42.660;23.342;2023-06-26T14:07:37;94476.31;;;26.80;69.49
8049;BME280;20935;42.660;23.342;2023-06-26T14:10:23;94477.59;;;26.79;69.58
8049;BME280;20935;42.660;23.342;2023-06-26T14:13:08;94481.06;;;26.80;69.27
8049;BME280;20935;42.660;23.342;2023-06-26T14:15:57;94490.06;;;26.80;69.39
8049;BME280;20935;42.660;23.342;2023-06-26T14:18:42;94485.31;;;26.81;69.46
8049;BME280;20935;42.660;23.342;2023-06-26T14:21:28;94473.06;;;26.82;69.13
8049;BME280;20935;42.660;23.342;2023-06-26T14:24:13;94471.06;;;26.82;69.49
8049;BME280;20935;42.660;23.342;2023-06-26T14:26:59;94472.56;;;26.83;69.53
8049;BME280;20935;42.660;23.342;2023-06-26T14:29:44;94469.34;;;26.85;69.15
8049;BME280;20935;42.660;23.342;2023-06-26T14:32:31;94468.59;;;26.84;69.42
8049;BME280;20935;42.660;23.342;2023-06-26T14:35:17;94462.34;;;26.84;69.01
8049;BME280;20935;42.660;23.342;2023-06-26T14:38:03;94469.06;;;26.83;69.35
8049;BME280;20935;42.660;23.342;2023-06-26T14:40:48;94467.56;;;26.82;69.27
8049;BME280;20935;42.660;23.342;2023-06-26T14:43:34;94475.06;;;26.81;69.47